Time;durP1;ratioP1;P1;durP2;ratioP2;P2;SDS_P1;SDS_P2;PMS_P1;PMS_P2;Temp;Humidity;BMP_temperature;BMP_pressure;BME280_temperature;BME280_humidity;BME280_pressure;Samples;Min_cycle;Max_cycle;Signal;HPM_P1;HPM_P2
2022/12/26 00:01:31;;;;;;;2.40;1.30;;;21.80;56.80;;;;;;5045177;28;20044;-64
2022/12/26 00:03:57;;;;;;;2.30;1.30;;;21.80;56.90;;;;;;5049468;28;20427;-65
2022/12/26 00:06:25;;;;;;;2.10;1.20;;;21.80;56.90;;;;;;5050516;28;20029;-66
2022/12/26 00:08:52;;;;;;;1.47;1.10;;;21.80;56.90;;;;;;5038961;28;20021;-66
2022/12/26 00:11:19;;;;;;;1.95;1.20;;;21.70;56.90;;;;;;5050708;28;20270;-66
2022/12/26 00:13:45;;;;;;;1.85;1.10;;;21.70;56.90;;;;;;5045254;28;20462;-66
2022/12/26 00:16:17;;;;;;;2.20;1.20;;;21.80;56.90;;;;;;5044823;28;20345;-65
2022/12/26 00:18:44;;;;;;;2.17;1.20;;;21.70;56.90;;;;;;5047176;28;20033;-66
2022/12/26 00:21:12;;;;;;;3.63;1.52;;;21.70;56.90;;;;;;5045638;28;20041;-66
2022/12/26 00:23:38;;;;;;;2.13;1.20;;;21.70;56.90;;;;;;5040376;28;20120;-65
2022/12/26 00:26:06;;;;;;;2.22;1.27;;;21.70;56.90;;;;;;5051047;28;20476;-65
2022/12/26 00:28:32;;;;;;;2.35;1.30;;;21.70;56.90;;;;;;5046353;28;20024;-65
2022/12/26 00:31:01;;;;;;;1.80;1.20;;;21.70;56.90;;;;;;5043090;28;20039;-65
2022/12/26 00:33:27;;;;;;;2.22;1.20;;;21.70;57.00;;;;;;5047068;28;20086;-66
2022/12/26 00:35:52;;;;;;;2.42;1.10;;;21.60;56.90;;;;;;5044520;28;20033;-65
2022/12/26 00:38:18;;;;;;;2.35;1.20;;;21.60;56.90;;;;;;5050830;28;20033;-65
2022/12/26 00:40:43;;;;;;;2.17;1.20;;;21.60;56.90;;;;;;5056592;28;20024;-65
2022/12/26 00:43:09;;;;;;;1.83;1.00;;;21.60;56.90;;;;;;5052348;28;20479;-65
2022/12/26 00:45:35;;;;;;;3.17;1.20;;;21.60;56.90;;;;;;5038430;28;20112;-65
2022/12/26 00:48:01;;;;;;;2.63;1.20;;;21.60;56.90;;;;;;5044802;28;20108;-65
2022/12/26 00:50:26;;;;;;;2.03;1.13;;;21.60;56.90;;;;;;5053623;28;20100;-65
2022/12/26 00:52:52;;;;;;;1.98;1.00;;;21.60;56.90;;;;;;5036583;28;20483;-65
2022/12/26 00:55:19;;;;;;;1.75;1.10;;;21.60;56.90;;;;;;5050979;28;20499;-65
2022/12/26 00:57:44;;;;;;;1.92;1.08;;;21.60;56.90;;;;;;5043171;28;20491;-66
2022/12/26 01:00:11;;;;;;;1.67;0.98;;;21.50;56.90;;;;;;5048199;28;20026;-65
2022/12/26 01:02:36;;;;;;;2.15;1.20;;;21.50;56.90;;;;;;5048677;28;20028;-65
2022/12/26 01:05:03;;;;;;;1.65;0.90;;;21.50;56.90;;;;;;5053186;28;20434;-65
2022/12/26 01:07:35;;;;;;;1.92;1.20;;;21.50;56.90;;;;;;5048564;28;20033;-65
2022/12/26 01:10:03;;;;;;;2.28;1.15;;;21.50;56.90;;;;;;5052571;28;20014;-65
2022/12/26 01:12:29;;;;;;;2.35;1.20;;;21.50;56.90;;;;;;5056338;28;20048;-65
2022/12/26 01:14:55;;;;;;;2.33;1.15;;;21.50;56.90;;;;;;5049358;28;20028;-66
2022/12/26 01:17:21;;;;;;;1.42;0.85;;;21.40;56.90;;;;;;5051707;28;20400;-65
2022/12/26 01:19:46;;;;;;;2.30;1.10;;;21.40;56.90;;;;;;5054780;28;20028;-66
2022/12/26 01:22:12;;;;;;;2.00;1.10;;;21.40;56.90;;;;;;5040291;28;20087;-65
2022/12/26 01:24:38;;;;;;;2.25;1.10;;;21.40;56.90;;;;;;5056745;28;20035;-67
2022/12/26 01:27:03;;;;;;;1.90;1.10;;;21.40;56.90;;;;;;5037540;28;20021;-66
2022/12/26 01:29:29;;;;;;;2.72;1.20;;;21.40;56.90;;;;;;5053170;28;20082;-66
2022/12/26 01:31:55;;;;;;;2.88;1.30;;;21.40;56.90;;;;;;5059583;28;20512;-65
2022/12/26 01:34:20;;;;;;;2.15;1.05;;;21.40;56.90;;;;;;5048408;28;20033;-66
2022/12/26 01:36:46;;;;;;;1.50;0.90;;;21.40;56.90;;;;;;5051385;28;20067;-66
2022/12/26 01:39:11;;;;;;;2.35;1.20;;;21.30;56.80;;;;;;5053652;28;20017;-66
2022/12/26 01:41:37;;;;;;;1.40;0.95;;;21.30;56.80;;;;;;5058107;28;20029;-66
2022/12/26 01:44:44;;;;;;;1.40;0.90;;;21.30;56.80;;;;;;5055782;28;20103;-68
2022/12/26 01:47:10;;;;;;;1.60;1.10;;;21.30;56.80;;;;;;5048917;28;20056;-66
2022/12/26 01:49:40;;;;;;;1.60;1.00;;;21.30;56.90;;;;;;5039581;28;20079;-65
2022/12/26 01:52:08;;;;;;;1.25;0.90;;;21.30;56.90;;;;;;5059433;28;20024;-65
2022/12/26 01:54:37;;;;;;;1.42;0.90;;;21.30;56.90;;;;;;5058088;28;20024;-65
2022/12/26 01:57:08;;;;;;;1.50;1.00;;;21.30;56.90;;;;;;5046062;28;20499;-65
2022/12/26 01:59:38;;;;;;;2.33;1.15;;;21.30;56.90;;;;;;5059873;28;20033;-67
2022/12/26 02:02:04;;;;;;;1.33;0.90;;;21.30;56.90;;;;;;5037951;28;20477;-65
2022/12/26 02:07:19;;;;;;;1.33;0.90;;;21.20;56.90;;;;;;5050548;28;20039;-67
2022/12/26 02:09:45;;;;;;;1.38;0.90;;;21.20;56.90;;;;;;5051568;28;20083;-65
2022/12/26 02:12:31;;;;;;;1.13;0.90;;;21.20;56.90;;;;;;5054532;28;20018;-67
2022/12/26 02:14:58;;;;;;;1.63;0.90;;;21.20;56.90;;;;;;5041885;28;20021;-65
2022/12/26 02:17:27;;;;;;;1.50;0.90;;;21.20;56.90;;;;;;5056239;28;20017;-65
2022/12/26 02:20:19;;;;;;;1.67;1.10;;;21.20;56.90;;;;;;5055452;28;20056;-67
2022/12/26 02:23:22;;;;;;;1.50;0.95;;;21.20;56.90;;;;;;5048682;28;20040;-66
2022/12/26 02:26:03;;;;;;;1.55;0.93;;;21.20;57.00;;;;;;5057343;28;20452;-66
2022/12/26 02:28:53;;;;;;;1.60;0.90;;;21.20;57.00;;;;;;5042105;28;20029;-67
2022/12/26 02:31:33;;;;;;;1.25;0.90;;;21.20;56.90;;;;;;5044411;28;20035;-67
2022/12/26 02:33:59;;;;;;;1.58;1.00;;;21.10;56.90;;;;;;5044698;28;20481;-66
2022/12/26 02:36:55;;;;;;;1.88;0.90;;;21.10;56.90;;;;;;5023748;28;20028;-67
2022/12/26 02:39:57;;;;;;;2.70;1.00;;;21.10;56.90;;;;;;5056987;28;20031;-67
2022/12/26 02:42:42;;;;;;;1.73;1.00;;;21.10;56.90;;;;;;5054366;28;20066;-66
2022/12/26 02:48:47;;;;;;;1.48;0.80;;;21.10;57.00;;;;;;5049085;28;20036;-67
2022/12/26 03:14:51;;;;;;;1.30;0.80;;;21.00;57.00;;;;;;5045324;28;20384;-67
2022/12/26 03:17:37;;;;;;;1.13;0.77;;;21.00;57.00;;;;;;5046209;28;20029;-66
2022/12/26 03:20:24;;;;;;;1.40;0.85;;;21.00;57.00;;;;;;5052895;28;20029;-66
2022/12/26 03:22:55;;;;;;;1.40;1.00;;;21.00;57.00;;;;;;5045842;28;20033;-66
2022/12/26 03:28:33;;;;;;;1.48;0.90;;;20.90;56.90;;;;;;5049528;28;20439;-66
2022/12/26 03:31:03;;;;;;;1.27;0.80;;;20.90;56.90;;;;;;5054633;28;20033;-67
2022/12/26 03:36:49;;;;;;;1.23;1.00;;;20.90;56.90;;;;;;5049784;28;20468;-66
2022/12/26 04:20:19;;;;;;;1.33;0.90;;;20.80;56.90;;;;;;5052092;28;20662;-65
2022/12/26 04:45:25;;;;;;;1.40;0.70;;;20.70;56.90;;;;;;5055792;28;20027;-65
2022/12/26 04:50:35;;;;;;;1.25;0.80;;;20.70;56.90;;;;;;5048473;28;20051;-65
2022/12/26 04:53:01;;;;;;;1.10;0.80;;;20.80;57.00;;;;;;5056007;28;20033;-67
2022/12/26 04:55:29;;;;;;;1.05;0.80;;;20.80;57.00;;;;;;5053088;28;20391;-65
2022/12/26 04:57:55;;;;;;;1.27;0.80;;;20.70;56.90;;;;;;5055394;28;20022;-65
2022/12/26 05:00:23;;;;;;;1.42;0.80;;;20.70;57.00;;;;;;5059663;28;20379;-66
2022/12/26 05:11:19;;;;;;;0.65;0.60;;;20.70;56.90;;;;;;5052784;28;20071;-65
2022/12/26 05:13:44;;;;;;;0.93;0.70;;;20.70;57.00;;;;;;5057764;28;20383;-65
2022/12/26 05:29:59;;;;;;;1.08;0.70;;;20.70;57.00;;;;;;5049917;28;20444;-66
2022/12/26 05:35:09;;;;;;;1.35;0.80;;;20.60;57.00;;;;;;5058669;28;20039;-65
2022/12/26 05:37:35;;;;;;;1.17;0.80;;;20.60;57.00;;;;;;5047695;28;20028;-66
2022/12/26 05:40:01;;;;;;;0.70;0.70;;;20.60;57.00;;;;;;5061026;28;20099;-66
2022/12/26 05:42:27;;;;;;;1.00;0.80;;;20.60;57.00;;;;;;5056036;28;20507;-66
2022/12/26 05:44:52;;;;;;;0.90;0.63;;;20.60;57.00;;;;;;5054178;28;20018;-66
2022/12/26 05:47:18;;;;;;;1.27;0.80;;;20.60;57.00;;;;;;5055670;28;20028;-67
2022/12/26 05:49:44;;;;;;;0.82;0.70;;;20.60;57.00;;;;;;5039262;28;20023;-65
2022/12/26 05:52:09;;;;;;;0.90;0.70;;;20.60;57.00;;;;;;5058809;28;20025;-66
2022/12/26 05:54:35;;;;;;;1.00;0.70;;;20.60;57.00;;;;;;5053797;28;20026;-66
2022/12/26 05:57:02;;;;;;;1.10;0.70;;;20.60;57.00;;;;;;5036491;28;20480;-68
2022/12/26 05:59:28;;;;;;;0.68;0.60;;;20.60;57.10;;;;;;5032786;28;20043;-67
2022/12/26 06:01:54;;;;;;;0.88;0.60;;;20.60;57.10;;;;;;5041604;28;20029;-68
2022/12/26 06:04:19;;;;;;;0.80;0.70;;;20.60;57.10;;;;;;5052573;28;20144;-66
2022/12/26 06:06:45;;;;;;;1.10;0.80;;;20.60;57.10;;;;;;5052055;28;20023;-66
2022/12/26 06:09:10;;;;;;;1.13;0.80;;;20.60;57.10;;;;;;5051275;28;20021;-66
2022/12/26 06:11:36;;;;;;;0.90;0.73;;;20.60;57.10;;;;;;5050148;28;20113;-65
2022/12/26 06:14:03;;;;;;;1.13;0.70;;;20.60;57.10;;;;;;5054450;28;20051;-66
2022/12/26 06:16:29;;;;;;;0.98;0.80;;;20.50;57.10;;;;;;5056060;28;20397;-66
2022/12/26 06:18:55;;;;;;;1.25;0.73;;;20.60;57.10;;;;;;5057517;28;20083;-66
2022/12/26 06:21:21;;;;;;;0.93;0.65;;;20.50;57.10;;;;;;5050888;28;20037;-67
2022/12/26 06:23:47;;;;;;;0.70;0.70;;;20.60;57.10;;;;;;5043514;28;20675;-66
2022/12/26 06:26:14;;;;;;;1.10;0.77;;;20.50;57.10;;;;;;5048176;28;20105;-65
2022/12/26 06:28:41;;;;;;;1.10;0.85;;;20.50;57.10;;;;;;5053728;28;20464;-66
2022/12/26 06:31:15;;;;;;;0.80;0.70;;;20.50;57.10;;;;;;5049416;28;20440;-67
2022/12/26 06:33:41;;;;;;;0.80;0.70;;;20.50;57.10;;;;;;5037223;28;20087;-66
2022/12/26 06:36:09;;;;;;;0.60;0.60;;;20.50;57.10;;;;;;5046978;28;20054;-66
2022/12/26 06:38:35;;;;;;;1.10;0.75;;;20.50;57.10;;;;;;5051422;28;20079;-66
2022/12/26 06:41:04;;;;;;;0.63;0.60;;;20.50;57.10;;;;;;5056298;28;20025;-67
2022/12/26 06:43:29;;;;;;;0.77;0.70;;;20.50;57.10;;;;;;5052255;28;20024;-66
2022/12/26 06:45:56;;;;;;;1.08;0.80;;;20.50;57.10;;;;;;5049536;28;20021;-66
2022/12/26 06:48:22;;;;;;;0.65;0.60;;;20.50;57.10;;;;;;5034648;28;20022;-66
2022/12/26 06:50:47;;;;;;;0.90;0.80;;;20.50;57.10;;;;;;5046082;28;20043;-65
2022/12/26 06:53:13;;;;;;;1.10;0.73;;;20.50;57.20;;;;;;5027550;28;20028;-67
2022/12/26 06:55:39;;;;;;;1.15;0.80;;;20.50;57.20;;;;;;5056173;28;20036;-65
2022/12/26 06:58:04;;;;;;;1.00;0.65;;;20.50;57.20;;;;;;5057182;28;20032;-66
2022/12/26 07:00:30;;;;;;;0.77;0.60;;;20.50;57.20;;;;;;5038476;28;20025;-65
2022/12/26 07:02:55;;;;;;;0.88;0.60;;;20.50;57.20;;;;;;5049692;28;20025;-66
2022/12/26 07:05:21;;;;;;;0.40;0.40;;;20.50;57.20;;;;;;5058424;28;20361;-67
2022/12/26 07:07:51;;;;;;;0.90;0.70;;;20.50;57.20;;;;;;5049684;28;20036;-66
2022/12/26 07:10:17;;;;;;;0.82;0.60;;;20.50;57.20;;;;;;5051887;28;20040;-67
2022/12/26 07:12:43;;;;;;;0.80;0.68;;;20.50;57.20;;;;;;5051336;28;20049;-66
2022/12/26 07:15:10;;;;;;;0.70;0.60;;;20.50;57.30;;;;;;5046843;28;20123;-66
2022/12/26 07:17:36;;;;;;;1.10;0.70;;;20.40;57.20;;;;;;5050913;28;20020;-66
2022/12/26 07:20:06;;;;;;;0.65;0.50;;;20.40;57.20;;;;;;5031954;28;20408;-67
2022/12/26 07:22:31;;;;;;;1.00;0.70;;;20.40;57.20;;;;;;5045992;28;20061;-66
2022/12/26 07:24:57;;;;;;;0.85;0.68;;;20.40;57.20;;;;;;5055439;28;20452;-66
2022/12/26 07:27:23;;;;;;;0.80;0.70;;;20.40;57.30;;;;;;5053780;28;20025;-66
2022/12/26 07:29:48;;;;;;;0.60;0.60;;;20.40;57.30;;;;;;5036352;28;20534;-67
2022/12/26 07:32:14;;;;;;;1.08;0.70;;;20.40;57.30;;;;;;5036022;28;20025;-66
2022/12/26 07:34:41;;;;;;;0.80;0.70;;;20.40;57.30;;;;;;5051045;28;20036;-67
2022/12/26 07:37:07;;;;;;;0.82;0.60;;;20.40;57.30;;;;;;5055326;28;20033;-66
2022/12/26 07:39:34;;;;;;;1.05;0.70;;;20.40;57.30;;;;;;5047940;28;20064;-66
2022/12/26 07:42:00;;;;;;;0.88;0.60;;;20.40;57.30;;;;;;5055614;28;20052;-66
2022/12/26 07:44:28;;;;;;;0.77;0.70;;;20.50;57.40;;;;;;5051640;28;20064;-68
2022/12/26 07:46:54;;;;;;;0.90;0.73;;;20.40;57.30;;;;;;5045370;28;20032;-66
2022/12/26 07:49:20;;;;;;;0.85;0.60;;;20.40;57.30;;;;;;5046092;28;20028;-66
2022/12/26 07:51:46;;;;;;;0.95;0.60;;;20.40;57.40;;;;;;5049927;28;20028;-67
2022/12/26 07:54:11;;;;;;;0.60;0.60;;;20.40;57.30;;;;;;5052688;28;20024;-66
2022/12/26 07:56:37;;;;;;;0.90;0.70;;;20.40;57.40;;;;;;5055348;28;20427;-65
2022/12/26 07:59:03;;;;;;;0.65;0.60;;;20.40;57.40;;;;;;5044268;28;20029;-66
2022/12/26 08:01:28;;;;;;;1.63;0.75;;;20.40;57.40;;;;;;5045109;28;20495;-66
2022/12/26 08:03:54;;;;;;;0.93;0.70;;;20.40;57.40;;;;;;5035229;28;20025;-66
2022/12/26 08:06:20;;;;;;;1.48;0.70;;;20.40;57.40;;;;;;5055416;28;20032;-66
2022/12/26 08:08:46;;;;;;;0.73;0.60;;;20.40;57.40;;;;;;5060607;28;20026;-66
2022/12/26 08:11:17;;;;;;;1.55;0.85;;;20.40;57.40;;;;;;5048621;28;20472;-66
2022/12/26 08:13:43;;;;;;;1.25;0.70;;;20.40;57.50;;;;;;5049023;28;20439;-66
2022/12/26 08:16:11;;;;;;;1.38;0.70;;;20.40;57.50;;;;;;5048471;28;20099;-68
2022/12/26 08:18:37;;;;;;;1.17;0.80;;;20.40;57.50;;;;;;5061882;28;20032;-66
2022/12/26 08:21:03;;;;;;;0.82;0.70;;;20.40;57.50;;;;;;5042068;28;20030;-66
2022/12/26 08:23:29;;;;;;;1.20;0.75;;;20.40;57.50;;;;;;5038101;28;20086;-66
2022/12/26 08:25:55;;;;;;;1.52;0.65;;;20.40;57.50;;;;;;5048597;28;20507;-66
2022/12/26 08:28:21;;;;;;;1.25;0.90;;;20.40;57.50;;;;;;5048370;28;20507;-66
2022/12/26 08:30:48;;;;;;;1.75;0.88;;;20.40;57.50;;;;;;5060260;28;20026;-66
2022/12/26 08:33:14;;;;;;;3.92;0.85;;;20.40;57.60;;;;;;5060534;28;20021;-66
2022/12/26 08:35:40;;;;;;;1.42;0.88;;;20.40;57.60;;;;;;5057701;28;20036;-66
2022/12/26 08:38:05;;;;;;;1.52;0.70;;;20.40;57.50;;;;;;5039450;28;20074;-66
2022/12/26 08:40:31;;;;;;;1.50;0.80;;;20.40;57.60;;;;;;5058093;28;20031;-66
2022/12/26 08:42:57;;;;;;;1.17;0.75;;;20.40;57.60;;;;;;5054103;28;20472;-66
2022/12/26 08:45:23;;;;;;;1.60;0.95;;;20.40;58.10;;;;;;5059860;28;20029;-66
2022/12/26 08:47:49;;;;;;;1.13;0.70;;;20.40;57.60;;;;;;5057502;28;20044;-66
2022/12/26 08:50:16;;;;;;;2.13;0.90;;;20.40;57.60;;;;;;5059045;28;20036;-66
2022/12/26 08:52:42;;;;;;;1.10;0.75;;;20.40;57.60;;;;;;5056853;28;20358;-66
2022/12/26 08:55:08;;;;;;;0.75;0.63;;;20.40;57.60;;;;;;5061110;28;20558;-66
2022/12/26 08:57:34;;;;;;;1.52;0.70;;;20.30;57.60;;;;;;5057904;28;20066;-66
2022/12/26 09:00:00;;;;;;;0.80;0.70;;;20.30;57.60;;;;;;5056208;28;20024;-66
2022/12/26 09:02:25;;;;;;;1.17;0.80;;;20.30;57.60;;;;;;5064510;28;20021;-66
2022/12/26 09:04:51;;;;;;;1.73;0.60;;;20.30;57.60;;;;;;5059681;28;20163;-66
2022/12/26 09:07:17;;;;;;;1.25;0.70;;;20.30;57.60;;;;;;5038888;28;20393;-66
2022/12/26 09:09:43;;;;;;;1.08;0.70;;;20.30;57.60;;;;;;5059007;28;20414;-65
2022/12/26 09:12:09;;;;;;;1.20;0.73;;;20.30;57.70;;;;;;5037508;28;20137;-66
2022/12/26 09:14:35;;;;;;;1.30;0.70;;;20.30;57.60;;;;;;5052512;28;20033;-66
2022/12/26 09:17:00;;;;;;;1.33;0.80;;;20.30;57.60;;;;;;5036463;28;20476;-67
2022/12/26 09:19:28;;;;;;;1.30;0.70;;;20.30;57.70;;;;;;5046209;28;20071;-66
2022/12/26 09:24:39;;;;;;;1.27;0.65;;;20.30;57.60;;;;;;5052953;28;20036;-66
2022/12/26 09:27:04;;;;;;;1.10;0.70;;;20.30;57.70;;;;;;5054913;28;20017;-66
2022/12/26 09:29:30;;;;;;;1.10;0.70;;;20.30;57.70;;;;;;5053702;28;20043;-67
2022/12/26 09:31:55;;;;;;;1.85;0.98;;;20.30;57.70;;;;;;5050438;28;20025;-66
2022/12/26 09:34:21;;;;;;;1.20;0.65;;;20.30;57.70;;;;;;5050078;28;20549;-66
2022/12/26 09:36:47;;;;;;;0.93;0.70;;;20.30;57.70;;;;;;5057726;28;20028;-67
2022/12/26 09:39:12;;;;;;;1.15;0.80;;;20.30;57.70;;;;;;5051818;28;20021;-66
2022/12/26 09:41:57;;;;;;;1.05;0.70;;;20.30;57.80;;;;;;5048628;28;20029;-66
2022/12/26 09:44:44;;;;;;;1.85;0.80;;;20.30;57.80;;;;;;5051298;28;20079;-66
2022/12/26 09:47:30;;;;;;;0.73;0.60;;;20.30;57.80;;;;;;5046753;28;20035;-66
2022/12/26 09:50:08;;;;;;;0.85;0.70;;;20.30;57.80;;;;;;5059596;28;20021;-66
2022/12/26 09:52:48;;;;;;;0.77;0.68;;;20.30;57.80;;;;;;5052476;28;20541;-66
2022/12/26 09:55:29;;;;;;;1.17;0.60;;;20.30;57.90;;;;;;5040055;28;20027;-67
2022/12/26 09:57:58;;;;;;;1.25;0.80;;;20.30;57.80;;;;;;5056463;28;20537;-66
2022/12/26 10:00:29;;;;;;;;;;;20.30;57.90;;;;;;5049849;28;20021;-67
2022/12/26 10:02:57;;;;;;;0.63;0.60;;;20.30;57.90;;;;;;5059368;28;20367;-67
2022/12/26 10:05:33;;;;;;;1.20;0.80;;;20.30;57.90;;;;;;5060604;28;20025;-67
2022/12/26 10:08:22;;;;;;;1.10;0.73;;;20.30;57.90;;;;;;5056680;28;20464;-66
2022/12/26 10:11:01;;;;;;;1.20;0.70;;;20.30;57.90;;;;;;5010104;28;20090;-66
2022/12/26 10:13:30;;;;;;;1.40;0.77;;;20.30;57.90;;;;;;5037122;28;20047;-66
2022/12/26 10:16:13;;;;;;;1.60;0.80;;;20.30;57.90;;;;;;5062390;28;20488;-66
2022/12/26 10:18:54;;;;;;;1.33;0.68;;;20.20;57.80;;;;;;5061731;28;20371;-66
2022/12/26 10:21:57;;;;;;;1.05;0.70;;;20.20;57.90;;;;;;5051413;28;20523;-67
2022/12/26 10:24:26;;;;;;;1.40;0.70;;;20.30;57.90;;;;;;5016837;28;20141;-67
2022/12/26 10:27:01;;;;;;;2.55;0.77;;;20.20;57.80;;;;;;5040078;28;20025;-66
2022/12/26 10:29:34;;;;;;;1.38;0.80;;;20.30;57.90;;;;;;5050977;28;20029;-67
2022/12/26 10:32:06;;;;;;;1.33;0.70;;;20.20;57.90;;;;;;5054783;28;20084;-66
2022/12/26 10:34:48;;;;;;;2.50;0.73;;;20.20;57.90;;;;;;5050158;28;20028;-66
2022/12/26 10:37:34;;;;;;;0.80;0.60;;;20.20;58.00;;;;;;5050160;28;20439;-66
2022/12/26 10:40:04;;;;;;;0.95;0.70;;;20.20;58.00;;;;;;5045693;28;20467;-66
2022/12/26 10:42:34;;;;;;;1.42;0.70;;;20.20;58.00;;;;;;5045832;28;20556;-66
2022/12/26 10:45:02;;;;;;;1.13;0.80;;;20.20;58.30;;;;;;5055383;28;20071;-68
2022/12/26 10:47:36;;;;;;;1.67;0.70;;;20.20;58.30;;;;;;5051951;28;20059;-66
2022/12/26 10:50:01;;;;;;;2.03;0.95;;;20.20;58.40;;;;;;5042958;28;20112;-67
2022/12/26 10:52:37;;;;;;;1.58;0.77;;;20.30;58.30;;;;;;5037699;28;20100;-66
2022/12/26 10:55:03;;;;;;;1.27;0.90;;;20.20;58.20;;;;;;5032536;28;20025;-66
2022/12/26 10:57:33;;;;;;;1.05;0.70;;;20.20;58.20;;;;;;5041246;28;20112;-67
2022/12/26 11:00:01;;;;;;;1.20;0.70;;;20.30;58.20;;;;;;5042489;28;20041;-67
2022/12/26 11:02:29;;;;;;;0.60;0.60;;;20.30;58.20;;;;;;5062421;28;20476;-67
2022/12/26 11:05:13;;;;;;;1.73;0.70;;;20.20;58.10;;;;;;5044733;28;20063;-66
2022/12/26 11:07:50;;;;;;;1.25;0.70;;;20.30;58.20;;;;;;5050989;28;20390;-66
2022/12/26 11:10:20;;;;;;;1.10;0.70;;;20.20;58.20;;;;;;5054324;28;20112;-66
2022/12/26 11:12:50;;;;;;;2.67;0.80;;;20.20;58.10;;;;;;5054376;28;20029;-66
2022/12/26 11:15:32;;;;;;;1.10;0.80;;;20.30;58.20;;;;;;5047143;28;20558;-67
2022/12/26 11:18:18;;;;;;;1.58;0.80;;;20.20;58.10;;;;;;5045762;28;20017;-66
2022/12/26 11:20:45;;;;;;;1.77;0.70;;;20.20;58.20;;;;;;5049291;28;20029;-67
2022/12/26 11:23:26;;;;;;;1.40;0.70;;;20.20;58.10;;;;;;5038328;28;20029;-66
2022/12/26 11:25:57;;;;;;;1.30;0.98;;;20.20;58.10;;;;;;5055017;28;20483;-66
2022/12/26 11:28:33;;;;;;;1.77;0.85;;;20.30;58.20;;;;;;5057996;28;20464;-66
2022/12/26 11:31:06;;;;;;;2.80;0.88;;;20.20;58.10;;;;;;5052789;28;20100;-65
2022/12/26 11:33:40;;;;;;;1.05;0.80;;;20.20;58.20;;;;;;5031058;28;20025;-68
2022/12/26 11:36:14;;;;;;;2.90;0.98;;;20.20;58.10;;;;;;5046331;28;20108;-66
2022/12/26 11:38:51;;;;;;;2.05;0.90;;;20.20;58.10;;;;;;5051095;28;20100;-66
2022/12/26 11:41:41;;;;;;;1.25;0.68;;;20.20;58.20;;;;;;5043355;28;20025;-67
2022/12/26 11:44:09;;;;;;;1.45;0.88;;;20.20;58.20;;;;;;5054251;28;20025;-66
2022/12/26 11:47:11;;;;;;;1.92;0.90;;;20.20;58.10;;;;;;5052442;28;20045;-66
2022/12/26 11:50:03;;;;;;;0.90;0.70;;;20.20;58.10;;;;;;5048573;28;20469;-66
2022/12/26 11:52:50;;;;;;;1.13;0.80;;;20.20;58.20;;;;;;5050844;28;20074;-67
2022/12/26 11:55:22;;;;;;;2.25;0.90;;;20.20;58.20;;;;;;5040853;28;20400;-67
2022/12/26 11:58:09;;;;;;;2.13;1.05;;;20.20;58.10;;;;;;5052521;28;20027;-67
2022/12/26 12:00:40;;;;;;;1.40;0.80;;;20.20;58.20;;;;;;5048364;28;20029;-68
2022/12/26 12:03:13;;;;;;;1.65;0.90;;;20.20;58.20;;;;;;5047520;28;20029;-67
2022/12/26 12:05:54;;;;;;;2.35;1.23;;;20.20;58.20;;;;;;5052092;28;20021;-67
2022/12/26 12:08:43;;;;;;;2.80;1.33;;;20.20;58.20;;;;;;5039466;28;20485;-67
2022/12/26 12:11:20;;;;;;;3.33;1.40;;;20.20;58.20;;;;;;5027781;28;20028;-67
2022/12/26 12:14:01;;;;;;;3.38;1.60;;;20.20;58.20;;;;;;5047123;28;20552;-68
2022/12/26 12:16:30;;;;;;;3.60;1.88;;;20.20;58.20;;;;;;5048612;28;20052;-67
2022/12/26 12:19:19;;;;;;;3.77;1.80;;;20.20;58.30;;;;;;5046166;28;20476;-67
2022/12/26 12:22:07;;;;;;;;;;;20.20;58.20;;;;;;5054417;28;20033;-67
2022/12/26 12:24:52;;;;;;;4.18;2.20;;;20.20;58.20;;;;;;5049876;28;19920;-68
2022/12/26 12:27:24;;;;;;;4.25;2.40;;;20.20;58.30;;;;;;5051856;28;20029;-68
2022/12/26 12:29:53;;;;;;;4.50;2.50;;;20.20;58.30;;;;;;5052647;28;20469;-68
2022/12/26 12:32:33;;;;;;;4.18;2.60;;;20.20;58.30;;;;;;5049206;28;20099;-67
2022/12/26 12:35:30;;;;;;;3.83;2.38;;;20.20;58.30;;;;;;5049614;28;20028;-68
2022/12/26 12:38:18;;;;;;;4.13;2.67;;;20.20;58.30;;;;;;5051598;28;20035;-68
2022/12/26 12:41:15;;;;;;;5.30;2.78;;;20.20;58.30;;;;;;5049783;28;20067;-68
2022/12/26 12:43:52;;;;;;;3.53;2.30;;;20.20;58.30;;;;;;5050912;28;20029;-67
2022/12/26 12:46:28;;;;;;;4.85;2.50;;;20.20;58.40;;;;;;5055239;28;20043;-68
2022/12/26 12:49:02;;;;;;;4.25;2.60;;;20.20;58.30;;;;;;5053793;28;20026;-67
2022/12/26 12:51:49;;;;;;;4.53;2.83;;;20.20;58.40;;;;;;5051367;28;20025;-67
2022/12/26 12:54:56;;;;;;;5.68;2.80;;;20.20;58.40;;;;;;5053990;28;20108;-67
2022/12/26 12:57:51;;;;;;;4.38;2.60;;;20.20;58.40;;;;;;4960271;28;20026;-68
2022/12/26 13:00:20;;;;;;;5.13;2.83;;;20.20;58.30;;;;;;5055043;28;20025;-68
2022/12/26 13:03:02;;;;;;;4.63;2.70;;;20.20;58.40;;;;;;5039980;28;20064;-68
2022/12/26 13:05:52;;;;;;;4.85;2.78;;;20.20;58.40;;;;;;5058587;28;20035;-68
2022/12/26 13:08:25;;;;;;;4.45;3.08;;;20.20;58.30;;;;;;5047186;28;20139;-67
2022/12/26 13:10:56;;;;;;;5.07;2.58;;;20.20;58.40;;;;;;5055564;28;20040;-67
2022/12/26 13:13:31;;;;;;;5.10;3.22;;;20.20;58.40;;;;;;5054490;28;20025;-68
2022/12/26 13:16:04;;;;;;;6.20;2.90;;;20.20;58.90;;;;;;5055114;28;20447;-67
2022/12/26 13:18:36;;;;;;;5.00;2.85;;;20.20;58.40;;;;;;5058922;28;20514;-67
2022/12/26 13:21:05;;;;;;;4.32;2.97;;;20.20;58.30;;;;;;5049491;28;20495;-68
2022/12/26 13:26:34;;;;;;;4.82;2.60;;;20.20;58.40;;;;;;5056840;28;20082;-67
2022/12/26 13:29:14;;;;;;;4.57;2.47;;;20.20;58.40;;;;;;5054653;28;20477;-68
2022/12/26 13:31:41;;;;;;;3.80;2.50;;;20.20;58.40;;;;;;5050141;28;20121;-67
2022/12/26 13:34:13;;;;;;;3.58;2.30;;;20.20;58.30;;;;;;5051943;28;20115;-68
2022/12/26 13:36:42;;;;;;;4.68;2.60;;;20.20;58.30;;;;;;5057344;28;20488;-68
2022/12/26 13:39:26;;;;;;;5.10;2.60;;;20.20;58.30;;;;;;5057689;28;20033;-67
2022/12/26 13:45:36;;;;;;;3.90;2.70;;;20.20;58.30;;;;;;5052061;28;20424;-68
2022/12/26 13:48:24;;;;;;;3.30;2.35;;;20.20;58.30;;;;;;5047798;28;20472;-68
2022/12/26 13:51:02;;;;;;;3.73;2.50;;;20.20;58.20;;;;;;5043255;28;20404;-68
2022/12/26 13:53:31;;;;;;;3.85;2.45;;;20.20;58.20;;;;;;5055702;28;20563;-67
2022/12/26 13:56:01;;;;;;;3.95;2.47;;;20.10;58.20;;;;;;5052579;28;20082;-68
2022/12/26 13:58:52;;;;;;;4.45;2.28;;;20.20;58.20;;;;;;5046784;28;20028;-67
2022/12/26 14:01:42;;;;;;;3.78;2.50;;;20.10;58.20;;;;;;5050742;28;20123;-68
2022/12/26 14:04:34;;;;;;;3.65;2.33;;;20.10;58.20;;;;;;5053356;28;20029;-67
2022/12/26 14:07:25;;;;;;;3.92;2.15;;;20.10;58.20;;;;;;5061343;28;20499;-67
2022/12/26 14:09:51;;;;;;;3.80;2.58;;;20.10;58.30;;;;;;5049824;28;20025;-68
2022/12/26 14:12:55;;;;;;;3.85;2.33;;;20.10;58.20;;;;;;5053641;28;20052;-68
2022/12/26 14:15:33;;;;;;;3.83;2.30;;;20.10;58.20;;;;;;5048180;28;20025;-68
2022/12/26 14:18:05;;;;;;;3.85;2.50;;;20.10;58.20;;;;;;5054447;28;20013;-67
2022/12/26 14:20:40;;;;;;;3.60;2.33;;;20.20;58.30;;;;;;5057159;28;20084;-68
2022/12/26 14:23:44;;;;;;;4.43;2.30;;;20.10;58.20;;;;;;5046350;28;20124;-68
2022/12/26 14:26:31;;;;;;;3.10;1.90;;;20.10;58.20;;;;;;5052781;28;20025;-68
2022/12/26 14:29:21;;;;;;;3.88;2.13;;;20.10;58.20;;;;;;5044554;28;20101;-68
2022/12/26 14:32:29;;;;;;;3.90;2.13;;;20.10;58.20;;;;;;5054744;28;20086;-68
2022/12/26 14:35:06;;;;;;;3.60;2.47;;;20.10;58.20;;;;;;4972095;28;20471;-68
2022/12/26 14:37:50;;;;;;;3.08;2.10;;;20.10;58.10;;;;;;5018377;28;20457;-68
2022/12/26 14:40:35;;;;;;;3.28;2.10;;;20.10;58.00;;;;;;5049206;28;20500;-67
2022/12/26 14:43:13;;;;;;;3.25;2.00;;;20.10;58.00;;;;;;5046928;28;20040;-68
2022/12/26 14:45:52;;;;;;;4.35;2.60;;;20.10;58.10;;;;;;5048946;28;20488;-68
2022/12/26 14:48:18;;;;;;;;;;;20.10;58.10;;;;;;5047116;28;20097;-67
2022/12/26 14:50:48;;;;;;;3.28;2.08;;;20.10;58.10;;;;;;5049938;28;19928;-68
2022/12/26 14:53:28;;;;;;;3.25;2.13;;;20.10;58.00;;;;;;5036450;28;20368;-68
2022/12/26 14:56:09;;;;;;;3.20;2.30;;;20.10;58.10;;;;;;5047101;28;20503;-67
2022/12/26 14:58:47;;;;;;;2.95;2.03;;;20.10;58.10;;;;;;5046396;28;20106;-68
2022/12/26 15:01:14;;;;;;;2.90;1.92;;;20.10;58.10;;;;;;5048072;28;20033;-67
2022/12/26 15:04:04;;;;;;;2.70;1.92;;;20.10;58.00;;;;;;5042135;28;20403;-67
2022/12/26 15:06:41;;;;;;;2.92;2.08;;;20.10;58.10;;;;;;5021987;28;20025;-67
2022/12/26 15:09:41;;;;;;;3.30;1.90;;;20.10;58.00;;;;;;5045897;28;20102;-67
2022/12/26 15:12:43;;;;;;;3.45;2.03;;;20.10;58.00;;;;;;5044645;28;20473;-68
2022/12/26 15:15:40;;;;;;;3.30;1.95;;;20.10;58.10;;;;;;5051359;28;20587;-68
2022/12/26 15:18:49;;;;;;;2.63;1.77;;;20.10;58.00;;;;;;5056815;28;20017;-67
2022/12/26 15:21:37;;;;;;;2.83;1.88;;;20.10;58.00;;;;;;5047259;28;20037;-68
2022/12/26 15:24:27;;;;;;;3.15;2.00;;;20.00;57.90;;;;;;5045423;28;20044;-68
2022/12/26 15:26:55;;;;;;;3.10;1.90;;;20.00;57.90;;;;;;5051033;28;20480;-67
2022/12/26 15:29:41;;;;;;;2.47;1.80;;;20.00;57.90;;;;;;5056168;28;20025;-68
2022/12/26 15:32:35;;;;;;;3.30;1.85;;;20.00;58.00;;;;;;5057683;28;20582;-68
2022/12/26 15:35:11;;;;;;;3.72;1.90;;;20.00;58.00;;;;;;5051403;28;20546;-66